sensor_id;sensor_type;location;lat;lon;timestamp;pressure;altitude;pressure_sealevel;temperature;humidity
13974;BME280;7060;43.770;4.008;2022-09-09T00:02:08;100985.09;;;17.87;72.36
13974;BME280;7060;43.770;4.008;2022-09-09T00:04:45;100989.38;;;17.81;72.07
13974;BME280;7060;43.770;4.008;2022-09-09T00:07:21;100990.31;;;17.74;72.21
13974;BME280;7060;43.770;4.008;2022-09-09T00:09:59;100990.50;;;17.72;72.06
13974;BME280;7060;43.770;4.008;2022-09-09T00:12:34;100987.50;;;17.67;72.07
13974;BME280;7060;43.770;4.008;2022-09-09T00:15:11;100982.34;;;17.57;72.15
13974;BME280;7060;43.770;4.008;2022-09-09T00:17:48;100989.06;;;17.62;72.20
13974;BME280;7060;43.770;4.008;2022-09-09T00:20:24;100992.81;;;17.60;72.36
13974;BME280;7060;43.770;4.008;2022-09-09T00:23:00;100991.69;;;17.55;71.99
13974;BME280;7060;43.770;4.008;2022-09-09T00:25:37;100995.84;;;17.43;72.46
13974;BME280;7060;43.770;4.008;2022-09-09T00:28:13;100992.00;;;17.37;72.79
13974;BME280;7060;43.770;4.008;2022-09-09T00:30:47;100990.50;;;17.35;72.61
13974;BME280;7060;43.770;4.008;2022-09-09T00:33:18;100992.28;;;17.27;73.38
13974;BME280;7060;43.770;4.008;2022-09-09T00:35:50;100995.47;;;17.31;73.45
13974;BME280;7060;43.770;4.008;2022-09-09T00:38:24;100993.69;;;17.38;73.44
13974;BME280;7060;43.770;4.008;2022-09-09T00:40:56;101015.84;;;17.34;73.26
13974;BME280;7060;43.770;4.008;2022-09-09T00:43:30;101004.13;;;17.26;73.28
13974;BME280;7060;43.770;4.008;2022-09-09T00:46:16;100995.06;;;17.19;73.33
13974;BME280;7060;43.770;4.008;2022-09-09T00:48:58;100985.81;;;17.14;73.99
13974;BME280;7060;43.770;4.008;2022-09-09T00:51:39;100986.28;;;17.17;73.80
13974;BME280;7060;43.770;4.008;2022-09-09T00:54:27;100989.16;;;17.16;73.66
13974;BME280;7060;43.770;4.008;2022-09-09T00:57:07;100990.56;;;17.12;73.93
13974;BME280;7060;43.770;4.008;2022-09-09T00:59:47;100987.84;;;17.12;73.81
13974;BME280;7060;43.770;4.008;2022-09-09T01:02:25;100989.06;;;17.09;73.59
13974;BME280;7060;43.770;4.008;2022-09-09T01:05:05;100988.56;;;17.06;73.86
13974;BME280;7060;43.770;4.008;2022-09-09T01:07:35;100988.13;;;17.02;73.71
13974;BME280;7060;43.770;4.008;2022-09-09T01:10:07;100988.31;;;17.01;73.66
13974;BME280;7060;43.770;4.008;2022-09-09T01:12:41;100989.31;;;17.00;73.67
13974;BME280;7060;43.770;4.008;2022-09-09T01:15:19;100972.50;;;16.89;73.65
13974;BME280;7060;43.770;4.008;2022-09-09T01:17:58;100984.34;;;16.88;73.82
13974;BME280;7060;43.770;4.008;2022-09-09T01:20:38;100982.84;;;16.86;73.83
13974;BME280;7060;43.770;4.008;2022-09-09T01:23:19;100983.50;;;16.88;74.06
13974;BME280;7060;43.770;4.008;2022-09-09T01:26:22;100955.50;;;16.66;73.86
13974;BME280;7060;43.770;4.008;2022-09-09T01:28:55;100983.31;;;16.89;73.69
13974;BME280;7060;43.770;4.008;2022-09-09T01:31:34;100985.00;;;16.90;73.96
13974;BME280;7060;43.770;4.008;2022-09-09T01:34:10;100977.56;;;16.92;73.79
13974;BME280;7060;43.770;4.008;2022-09-09T01:36:44;100981.28;;;16.91;73.93
13974;BME280;7060;43.770;4.008;2022-09-09T01:39:13;100974.00;;;16.92;73.93
13974;BME280;7060;43.770;4.008;2022-09-09T01:41:44;100974.38;;;16.89;74.20
13974;BME280;7060;43.770;4.008;2022-09-09T01:44:16;100966.09;;;16.90;74.35
13974;BME280;7060;43.770;4.008;2022-09-09T01:46:45;100974.19;;;16.90;74.67
13974;BME280;7060;43.770;4.008;2022-09-09T01:49:18;100988.34;;;16.92;74.83
13974;BME280;7060;43.770;4.008;2022-09-09T01:51:50;100992.38;;;16.97;74.95
13974;BME280;7060;43.770;4.008;2022-09-09T01:54:29;100991.72;;;16.95;75.22
13974;BME280;7060;43.770;4.008;2022-09-09T01:57:07;100982.13;;;16.92;75.31
13974;BME280;7060;43.770;4.008;2022-09-09T01:59:50;100974.38;;;16.89;75.00
13974;BME280;7060;43.770;4.008;2022-09-09T02:02:26;100978.44;;;16.85;75.44
13974;BME280;7060;43.770;4.008;2022-09-09T02:05:17;100977.63;;;16.84;75.13
13974;BME280;7060;43.770;4.008;2022-09-09T02:07:52;100902.38;;;16.36;75.04
13974;BME280;7060;43.770;4.008;2022-09-09T02:10:46;100974.25;;;16.82;74.95
13974;BME280;7060;43.770;4.008;2022-09-09T02:13:29;100982.06;;;16.77;75.08
13974;BME280;7060;43.770;4.008;2022-09-09T02:16:03;100982.44;;;16.74;74.94
13974;BME280;7060;43.770;4.008;2022-09-09T02:18:38;100980.94;;;16.72;75.00
13974;BME280;7060;43.770;4.008;2022-09-09T02:21:10;100980.81;;;16.65;75.01
13974;BME280;7060;43.770;4.008;2022-09-09T02:23:41;100986.88;;;16.67;75.15
13974;BME280;7060;43.770;4.008;2022-09-09T02:26:13;100985.19;;;16.66;75.07
13974;BME280;7060;43.770;4.008;2022-09-09T02:28:54;100973.69;;;16.64;75.04
13974;BME280;7060;43.770;4.008;2022-09-09T02:31:25;100988.06;;;16.65;74.98
13974;BME280;7060;43.770;4.008;2022-09-09T02:34:01;100985.50;;;16.63;74.96
13974;BME280;7060;43.770;4.008;2022-09-09T02:36:32;100985.19;;;16.66;74.80
13974;BME280;7060;43.770;4.008;2022-09-09T02:39:02;100989.56;;;16.67;74.55
13974;BME280;7060;43.770;4.008;2022-09-09T02:41:37;100998.16;;;16.71;74.36
13974;BME280;7060;43.770;4.008;2022-09-09T02:44:10;101002.72;;;16.70;74.09
13974;BME280;7060;43.770;4.008;2022-09-09T02:46:53;100998.84;;;16.65;74.06
13974;BME280;7060;43.770;4.008;2022-09-09T02:49:29;100963.56;;;16.43;74.26
13974;BME280;7060;43.770;4.008;2022-09-09T02:52:06;100965.44;;;16.35;74.40
13974;BME280;7060;43.770;4.008;2022-09-09T02:54:38;100995.22;;;16.49;74.70
13974;BME280;7060;43.770;4.008;2022-09-09T02:57:12;100995.84;;;16.51;74.89
13974;BME280;7060;43.770;4.008;2022-09-09T02:59:47;100987.41;;;16.54;74.69
13974;BME280;7060;43.770;4.008;2022-09-09T03:02:16;100984.03;;;16.52;74.61
13974;BME280;7060;43.770;4.008;2022-09-09T03:04:50;100982.94;;;16.47;74.80
13974;BME280;7060;43.770;4.008;2022-09-09T03:07:19;100974.81;;;16.47;74.52
13974;BME280;7060;43.770;4.008;2022-09-09T03:09:50;100978.38;;;16.47;74.18
13974;BME280;7060;43.770;4.008;2022-09-09T03:12:24;100968.28;;;16.41;74.62
13974;BME280;7060;43.770;4.008;2022-09-09T03:14:54;100962.53;;;16.44;74.53
13974;BME280;7060;43.770;4.008;2022-09-09T03:17:23;100967.94;;;16.44;74.68
13974;BME280;7060;43.770;4.008;2022-09-09T03:19:54;100977.22;;;16.42;74.32
13974;BME280;7060;43.770;4.008;2022-09-09T03:22:23;100976.41;;;16.33;74.18
13974;BME280;7060;43.770;4.008;2022-09-09T03:24:53;100969.75;;;16.21;74.19
13974;BME280;7060;43.770;4.008;2022-09-09T03:27:21;100986.41;;;16.24;74.58
13974;BME280;7060;43.770;4.008;2022-09-09T03:29:53;100988.47;;;16.22;74.75
13974;BME280;7060;43.770;4.008;2022-09-09T03:32:24;100984.94;;;16.22;74.84
13974;BME280;7060;43.770;4.008;2022-09-09T03:34:55;100977.00;;;16.20;74.99
13974;BME280;7060;43.770;4.008;2022-09-09T03:37:24;100971.22;;;16.23;74.92
13974;BME280;7060;43.770;4.008;2022-09-09T03:39:53;100976.28;;;16.26;74.86
13974;BME280;7060;43.770;4.008;2022-09-09T03:42:23;100985.22;;;16.27;74.73
13974;BME280;7060;43.770;4.008;2022-09-09T03:44:55;100987.06;;;16.26;74.41
13974;BME280;7060;43.770;4.008;2022-09-09T03:47:25;100976.88;;;16.14;74.82
13974;BME280;7060;43.770;4.008;2022-09-09T03:50:00;100981.06;;;16.16;75.08
13974;BME280;7060;43.770;4.008;2022-09-09T03:52:28;100976.84;;;16.22;74.93
13974;BME280;7060;43.770;4.008;2022-09-09T03:54:57;100966.22;;;16.20;74.61
13974;BME280;7060;43.770;4.008;2022-09-09T03:57:26;100974.13;;;16.22;74.69
13974;BME280;7060;43.770;4.008;2022-09-09T03:59:58;100976.16;;;16.20;74.69
13974;BME280;7060;43.770;4.008;2022-09-09T04:02:31;100982.09;;;16.15;75.07
13974;BME280;7060;43.770;4.008;2022-09-09T04:05:00;100980.72;;;16.19;75.31
13974;BME280;7060;43.770;4.008;2022-09-09T04:07:28;100971.44;;;16.22;75.15
13974;BME280;7060;43.770;4.008;2022-09-09T04:09:56;100965.38;;;16.20;75.29
13974;BME280;7060;43.770;4.008;2022-09-09T04:12:24;100961.50;;;16.22;75.52
13974;BME280;7060;43.770;4.008;2022-09-09T04:14:53;100965.03;;;16.23;75.54
13974;BME280;7060;43.770;4.008;2022-09-09T04:17:22;100967.50;;;16.24;76.05
13974;BME280;7060;43.770;4.008;2022-09-09T04:19:51;100965.78;;;16.32;76.10
13974;BME280;7060;43.770;4.008;2022-09-09T04:22:19;100964.44;;;16.36;76.12
13974;BME280;7060;43.770;4.008;2022-09-09T04:24:49;100969.28;;;16.40;76.30
13974;BME280;7060;43.770;4.008;2022-09-09T04:27:18;100969.78;;;16.44;76.59
13974;BME280;7060;43.770;4.008;2022-09-09T04:29:47;100982.09;;;16.46;76.37
13974;BME280;7060;43.770;4.008;2022-09-09T04:32:15;100986.81;;;16.44;76.40
13974;BME280;7060;43.770;4.008;2022-09-09T04:34:46;100983.28;;;16.44;76.14
13974;BME280;7060;43.770;4.008;2022-09-09T04:37:15;100983.44;;;16.42;75.82
13974;BME280;7060;43.770;4.008;2022-09-09T04:39:43;100984.28;;;16.43;75.59
13974;BME280;7060;43.770;4.008;2022-09-09T04:42:12;100985.63;;;16.47;75.21
13974;BME280;7060;43.770;4.008;2022-09-09T04:44:43;100995.56;;;16.46;75.13
13974;BME280;7060;43.770;4.008;2022-09-09T04:47:12;100995.22;;;16.49;74.96
13974;BME280;7060;43.770;4.008;2022-09-09T04:49:41;100992.97;;;16.53;74.80
13974;BME280;7060;43.770;4.008;2022-09-09T04:52:11;100997.69;;;16.59;74.87
13974;BME280;7060;43.770;4.008;2022-09-09T04:54:40;100994.31;;;16.57;75.04
13974;BME280;7060;43.770;4.008;2022-09-09T04:57:10;101000.06;;;16.54;75.23
13974;BME280;7060;43.770;4.008;2022-09-09T04:59:45;101008.34;;;16.52;75.57
13974;BME280;7060;43.770;4.008;2022-09-09T05:02:13;101010.50;;;16.57;75.72
13974;BME280;7060;43.770;4.008;2022-09-09T05:04:42;101011.84;;;16.61;75.75
13974;BME280;7060;43.770;4.008;2022-09-09T05:07:12;101020.94;;;16.60;75.93
13974;BME280;7060;43.770;4.008;2022-09-09T05:09:41;101014.88;;;16.58;76.08
13974;BME280;7060;43.770;4.008;2022-09-09T05:12:10;101014.34;;;16.63;76.13
13974;BME280;7060;43.770;4.008;2022-09-09T05:14:45;101013.69;;;16.60;76.41
13974;BME280;7060;43.770;4.008;2022-09-09T05:17:13;101024.47;;;16.69;76.29
13974;BME280;7060;43.770;4.008;2022-09-09T05:19:43;101039.13;;;16.74;76.24
13974;BME280;7060;43.770;4.008;2022-09-09T05:22:13;101034.75;;;16.73;76.42
13974;BME280;7060;43.770;4.008;2022-09-09T05:24:44;101036.78;;;16.71;76.17
13974;BME280;7060;43.770;4.008;2022-09-09T05:27:12;101037.81;;;16.70;76.90
13974;BME280;7060;43.770;4.008;2022-09-09T05:29:42;101043.19;;;16.70;77.28
13974;BME280;7060;43.770;4.008;2022-09-09T05:32:12;101043.50;;;16.75;77.40
13974;BME280;7060;43.770;4.008;2022-09-09T05:34:45;101036.44;;;16.74;77.59
13974;BME280;7060;43.770;4.008;2022-09-09T05:37:16;101027.66;;;16.72;77.78
13974;BME280;7060;43.770;4.008;2022-09-09T05:39:45;101034.09;;;16.71;77.85
13974;BME280;7060;43.770;4.008;2022-09-09T05:42:13;101040.63;;;16.77;77.96
13974;BME280;7060;43.770;4.008;2022-09-09T05:44:41;101035.50;;;16.82;77.98
13974;BME280;7060;43.770;4.008;2022-09-09T05:47:11;101023.34;;;16.86;78.06
13974;BME280;7060;43.770;4.008;2022-09-09T05:49:41;101032.28;;;16.86;77.77
13974;BME280;7060;43.770;4.008;2022-09-09T05:52:09;101034.97;;;16.86;77.68
13974;BME280;7060;43.770;4.008;2022-09-09T05:54:39;101037.38;;;16.81;78.07
13974;BME280;7060;43.770;4.008;2022-09-09T05:57:09;101033.47;;;16.84;78.33
13974;BME280;7060;43.770;4.008;2022-09-09T05:59:37;101025.88;;;16.87;78.48
13974;BME280;7060;43.770;4.008;2022-09-09T06:02:05;101032.22;;;16.95;78.55
13974;BME280;7060;43.770;4.008;2022-09-09T06:04:36;101041.31;;;17.02;78.60
13974;BME280;7060;43.770;4.008;2022-09-09T06:07:05;101040.94;;;17.05;78.49
13974;BME280;7060;43.770;4.008;2022-09-09T06:09:34;101046.72;;;17.02;78.67
13974;BME280;7060;43.770;4.008;2022-09-09T06:12:05;101059.56;;;17.00;78.99
13974;BME280;7060;43.770;4.008;2022-09-09T06:14:34;101054.63;;;17.03;78.89
13974;BME280;7060;43.770;4.008;2022-09-09T06:17:04;101059.94;;;17.11;79.11
13974;BME280;7060;43.770;4.008;2022-09-09T06:19:34;101043.66;;;17.05;78.78
13974;BME280;7060;43.770;4.008;2022-09-09T06:22:03;101075.97;;;17.13;79.00
13974;BME280;7060;43.770;4.008;2022-09-09T06:24:35;101089.13;;;17.16;79.18
13974;BME280;7060;43.770;4.008;2022-09-09T06:27:05;101093.16;;;17.20;79.11
13974;BME280;7060;43.770;4.008;2022-09-09T06:29:35;101077.44;;;17.23;78.99
13974;BME280;7060;43.770;4.008;2022-09-09T06:32:04;101076.22;;;17.26;79.05
13974;BME280;7060;43.770;4.008;2022-09-09T06:34:35;101085.38;;;17.25;79.18
13974;BME280;7060;43.770;4.008;2022-09-09T06:37:03;101087.69;;;17.28;79.37
13974;BME280;7060;43.770;4.008;2022-09-09T06:39:41;101072.22;;;17.22;79.38
13974;BME280;7060;43.770;4.008;2022-09-09T06:42:12;101091.16;;;17.37;79.43
13974;BME280;7060;43.770;4.008;2022-09-09T06:44:50;101091.63;;;17.40;79.43
13974;BME280;7060;43.770;4.008;2022-09-09T06:47:34;101092.31;;;17.42;79.86
13974;BME280;7060;43.770;4.008;2022-09-09T06:50:04;101089.91;;;17.47;79.62
13974;BME280;7060;43.770;4.008;2022-09-09T06:52:34;101098.66;;;17.49;79.68
13974;BME280;7060;43.770;4.008;2022-09-09T06:55:03;101094.22;;;17.56;80.01
13974;BME280;7060;43.770;4.008;2022-09-09T06:57:34;101097.41;;;17.60;79.75
13974;BME280;7060;43.770;4.008;2022-09-09T07:00:15;101094.69;;;17.60;79.80
13974;BME280;7060;43.770;4.008;2022-09-09T07:02:43;101104.97;;;17.65;80.13
13974;BME280;7060;43.770;4.008;2022-09-09T07:05:13;101113.03;;;17.73;80.03
13974;BME280;7060;43.770;4.008;2022-09-09T07:07:44;101110.44;;;17.79;80.00
13974;BME280;7060;43.770;4.008;2022-09-09T07:10:14;101100.25;;;18.70;76.08
13974;BME280;7060;43.770;4.008;2022-09-09T07:12:51;101100.00;;;18.35;77.50
13974;BME280;7060;43.770;4.008;2022-09-09T07:15:22;101100.84;;;18.21;78.20
13974;BME280;7060;43.770;4.008;2022-09-09T07:17:53;101108.22;;;18.12;78.58
13974;BME280;7060;43.770;4.008;2022-09-09T07:20:21;101103.00;;;18.11;79.01
13974;BME280;7060;43.770;4.008;2022-09-09T07:22:54;101104.03;;;18.10;79.21
13974;BME280;7060;43.770;4.008;2022-09-09T07:25:23;101101.88;;;18.05;79.51
13974;BME280;7060;43.770;4.008;2022-09-09T07:27:53;101098.50;;;18.03;79.76
13974;BME280;7060;43.770;4.008;2022-09-09T07:30:21;101100.00;;;18.06;79.81
13974;BME280;7060;43.770;4.008;2022-09-09T07:32:54;101101.13;;;18.11;79.80
13974;BME280;7060;43.770;4.008;2022-09-09T07:35:24;101091.41;;;18.17;79.71
13974;BME280;7060;43.770;4.008;2022-09-09T07:37:53;101093.56;;;18.21;79.65
13974;BME280;7060;43.770;4.008;2022-09-09T07:40:21;101094.69;;;18.27;79.38
13974;BME280;7060;43.770;4.008;2022-09-09T07:42:50;101092.56;;;18.37;78.92
13974;BME280;7060;43.770;4.008;2022-09-09T07:45:20;101097.84;;;18.45;78.85
13974;BME280;7060;43.770;4.008;2022-09-09T07:47:49;101098.31;;;18.49;79.09
13974;BME280;7060;43.770;4.008;2022-09-09T07:50:18;101105.34;;;18.58;78.53
13974;BME280;7060;43.770;4.008;2022-09-09T07:52:47;101113.75;;;18.63;77.79
13974;BME280;7060;43.770;4.008;2022-09-09T07:55:15;101115.94;;;18.74;77.80
13974;BME280;7060;43.770;4.008;2022-09-09T07:57:44;101119.19;;;18.84;77.26
13974;BME280;7060;43.770;4.008;2022-09-09T08:00:14;101114.44;;;18.86;76.59
13974;BME280;7060;43.770;4.008;2022-09-09T08:02:50;101118.16;;;18.85;76.16
13974;BME280;7060;43.770;4.008;2022-09-09T08:05:21;101113.31;;;18.81;76.32
13974;BME280;7060;43.770;4.008;2022-09-09T08:07:50;101117.81;;;18.74;76.28
13974;BME280;7060;43.770;4.008;2022-09-09T08:10:19;101116.13;;;18.73;76.40
13974;BME280;7060;43.770;4.008;2022-09-09T08:12:49;101115.94;;;18.74;76.45
13974;BME280;7060;43.770;4.008;2022-09-09T08:15:37;101118.47;;;18.76;77.01
13974;BME280;7060;43.770;4.008;2022-09-09T08:18:08;101126.22;;;18.79;76.90
13974;BME280;7060;43.770;4.008;2022-09-09T08:20:37;101129.38;;;18.82;77.02
13974;BME280;7060;43.770;4.008;2022-09-09T08:23:06;101139.09;;;18.91;76.69
13974;BME280;7060;43.770;4.008;2022-09-09T08:25:34;101123.66;;;18.92;76.20
13974;BME280;7060;43.770;4.008;2022-09-09T08:28:02;101139.38;;;19.18;75.36
13974;BME280;7060;43.770;4.008;2022-09-09T08:30:31;101117.31;;;19.21;74.92
13974;BME280;7060;43.770;4.008;2022-09-09T08:32:59;101141.75;;;19.42;73.34
13974;BME280;7060;43.770;4.008;2022-09-09T08:35:29;101139.53;;;19.52;72.91
13974;BME280;7060;43.770;4.008;2022-09-09T08:38:00;101155.28;;;19.64;73.11
13974;BME280;7060;43.770;4.008;2022-09-09T08:40:37;101149.75;;;19.72;73.84
13974;BME280;7060;43.770;4.008;2022-09-09T08:43:07;101150.84;;;19.77;73.68
13974;BME280;7060;43.770;4.008;2022-09-09T08:45:43;101158.63;;;19.87;73.48
13974;BME280;7060;43.770;4.008;2022-09-09T08:48:29;101161.78;;;19.90;73.06
13974;BME280;7060;43.770;4.008;2022-09-09T08:51:04;101169.34;;;19.95;71.97
13974;BME280;7060;43.770;4.008;2022-09-09T08:53:41;101164.16;;;20.00;71.40
13974;BME280;7060;43.770;4.008;2022-09-09T08:56:13;101097.28;;;19.65;72.42
13974;BME280;7060;43.770;4.008;2022-09-09T08:58:49;101173.03;;;20.15;73.52
13974;BME280;7060;43.770;4.008;2022-09-09T09:01:36;101161.22;;;20.23;73.00
13974;BME280;7060;43.770;4.008;2022-09-09T09:04:26;101169.63;;;20.28;72.56
13974;BME280;7060;43.770;4.008;2022-09-09T09:07:06;101168.38;;;20.31;71.96
13974;BME280;7060;43.770;4.008;2022-09-09T09:09:42;101170.28;;;20.37;71.36
13974;BME280;7060;43.770;4.008;2022-09-09T09:12:16;101161.50;;;20.35;71.29
13974;BME280;7060;43.770;4.008;2022-09-09T09:14:48;101172.00;;;20.44;71.05
13974;BME280;7060;43.770;4.008;2022-09-09T09:17:19;101165.78;;;20.50;71.56
13974;BME280;7060;43.770;4.008;2022-09-09T09:19:49;101170.16;;;20.51;71.67
13974;BME280;7060;43.770;4.008;2022-09-09T09:22:20;101184.19;;;20.55;71.86
13974;BME280;7060;43.770;4.008;2022-09-09T09:24:54;101187.56;;;20.57;72.62
13974;BME280;7060;43.770;4.008;2022-09-09T09:27:31;101179.84;;;20.60;72.94
13974;BME280;7060;43.770;4.008;2022-09-09T09:30:10;101185.69;;;20.64;73.01
13974;BME280;7060;43.770;4.008;2022-09-09T09:33:01;101187.56;;;20.63;72.81
13974;BME280;7060;43.770;4.008;2022-09-09T09:35:30;101183.41;;;20.68;72.17
13974;BME280;7060;43.770;4.008;2022-09-09T09:38:14;101186.16;;;20.74;71.38
13974;BME280;7060;43.770;4.008;2022-09-09T09:41:04;101193.72;;;20.79;70.66
13974;BME280;7060;43.770;4.008;2022-09-09T09:43:34;101192.91;;;20.85;70.08
13974;BME280;7060;43.770;4.008;2022-09-09T09:46:19;101193.97;;;20.90;69.44
13974;BME280;7060;43.770;4.008;2022-09-09T09:48:57;101153.13;;;20.71;69.18
13974;BME280;7060;43.770;4.008;2022-09-09T09:51:28;101192.59;;;21.01;68.86
13974;BME280;7060;43.770;4.008;2022-09-09T09:54:13;101193.91;;;21.12;68.58
13974;BME280;7060;43.770;4.008;2022-09-09T09:56:47;101196.41;;;21.20;68.28
13974;BME280;7060;43.770;4.008;2022-09-09T09:59:21;101197.06;;;21.28;67.58
13974;BME280;7060;43.770;4.008;2022-09-09T10:02:16;101197.72;;;21.31;67.23
13974;BME280;7060;43.770;4.008;2022-09-09T10:04:48;101210.72;;;21.42;67.70
13974;BME280;7060;43.770;4.008;2022-09-09T10:07:19;101197.56;;;21.52;68.65
13974;BME280;7060;43.770;4.008;2022-09-09T10:09:53;101203.22;;;21.63;68.51
13974;BME280;7060;43.770;4.008;2022-09-09T10:12:30;101201.34;;;21.71;66.12
13974;BME280;7060;43.770;4.008;2022-09-09T10:15:10;101200.75;;;21.82;65.25
13974;BME280;7060;43.770;4.008;2022-09-09T10:17:52;101197.22;;;21.94;63.98
13974;BME280;7060;43.770;4.008;2022-09-09T10:20:32;101198.88;;;22.02;63.09
13974;BME280;7060;43.770;4.008;2022-09-09T10:23:13;101196.16;;;22.15;62.21
13974;BME280;7060;43.770;4.008;2022-09-09T10:26:03;101192.78;;;22.33;61.42
13974;BME280;7060;43.770;4.008;2022-09-09T10:28:57;101188.56;;;22.63;60.44
13974;BME280;7060;43.770;4.008;2022-09-09T10:31:33;101192.66;;;22.92;58.89
13974;BME280;7060;43.770;4.008;2022-09-09T10:34:15;101198.91;;;23.06;56.79
13974;BME280;7060;43.770;4.008;2022-09-09T10:36:49;101190.22;;;23.16;54.42
13974;BME280;7060;43.770;4.008;2022-09-09T10:39:28;101191.88;;;23.30;52.92
13974;BME280;7060;43.770;4.008;2022-09-09T10:42:05;101190.28;;;23.47;51.31
13974;BME280;7060;43.770;4.008;2022-09-09T10:44:56;101186.59;;;23.67;51.67
13974;BME280;7060;43.770;4.008;2022-09-09T10:47:54;101180.69;;;23.94;52.22
13974;BME280;7060;43.770;4.008;2022-09-09T10:50:47;101175.72;;;24.16;50.12
13974;BME280;7060;43.770;4.008;2022-09-09T10:53:42;101177.63;;;24.34;51.30
13974;BME280;7060;43.770;4.008;2022-09-09T10:56:16;101172.56;;;24.56;50.15
13974;BME280;7060;43.770;4.008;2022-09-09T10:58:51;101172.56;;;24.56;47.66
13974;BME280;7060;43.770;4.008;2022-09-09T11:01:24;101153.88;;;24.35;48.45
13974;BME280;7060;43.770;4.008;2022-09-09T11:03:56;101159.78;;;24.32;48.78
13974;BME280;7060;43.770;4.008;2022-09-09T11:06:30;101160.13;;;24.42;50.37
13974;BME280;7060;43.770;4.008;2022-09-09T11:09:03;101166.88;;;24.57;49.17
13974;BME280;7060;43.770;4.008;2022-09-09T11:11:35;101154.16;;;24.70;48.97
13974;BME280;7060;43.770;4.008;2022-09-09T11:14:13;101145.31;;;24.86;47.94
13974;BME280;7060;43.770;4.008;2022-09-09T11:16:48;101143.56;;;24.91;46.42
13974;BME280;7060;43.770;4.008;2022-09-09T11:19:23;101140.75;;;24.98;47.23
13974;BME280;7060;43.770;4.008;2022-09-09T11:21:55;101139.94;;;25.09;47.75
13974;BME280;7060;43.770;4.008;2022-09-09T11:24:27;101131.28;;;25.12;45.10
13974;BME280;7060;43.770;4.008;2022-09-09T11:27:07;101131.50;;;25.11;44.83
13974;BME280;7060;43.770;4.008;2022-09-09T11:33:07;101121.69;;;25.21;45.93
13974;BME280;7060;43.770;4.008;2022-09-09T11:36:00;101132.28;;;25.29;44.89
13974;BME280;7060;43.770;4.008;2022-09-09T11:38:41;101125.31;;;25.34;44.47
13974;BME280;7060;43.770;4.008;2022-09-09T11:41:14;101118.66;;;25.41;44.88
13974;BME280;7060;43.770;4.008;2022-09-09T11:43:49;101123.81;;;25.49;45.81
13974;BME280;7060;43.770;4.008;2022-09-09T11:46:23;101127.63;;;25.48;46.50
13974;BME280;7060;43.770;4.008;2022-09-09T11:49:02;101101.88;;;25.38;46.44
13974;BME280;7060;43.770;4.008;2022-09-09T11:51:33;100992.53;;;24.89;46.78
13974;BME280;7060;43.770;4.008;2022-09-09T11:56:47;101127.22;;;25.98;44.89
13974;BME280;7060;43.770;4.008;2022-09-09T11:59:20;101124.97;;;25.95;45.54
13974;BME280;7060;43.770;4.008;2022-09-09T12:01:55;101113.84;;;25.90;46.70
13974;BME280;7060;43.770;4.008;2022-09-09T12:04:31;101133.13;;;25.83;46.51
13974;BME280;7060;43.770;4.008;2022-09-09T12:07:02;101128.84;;;25.87;46.30
13974;BME280;7060;43.770;4.008;2022-09-09T12:09:43;101129.06;;;25.86;45.76
13974;BME280;7060;43.770;4.008;2022-09-09T12:12:28;101131.34;;;25.77;45.20
13974;BME280;7060;43.770;4.008;2022-09-09T12:15:03;101136.56;;;25.67;45.69
13974;BME280;7060;43.770;4.008;2022-09-09T12:17:50;101103.78;;;25.37;45.82
13974;BME280;7060;43.770;4.008;2022-09-09T12:20:22;101129.06;;;25.51;47.39
13974;BME280;7060;43.770;4.008;2022-09-09T12:22:59;101128.91;;;25.57;45.66
13974;BME280;7060;43.770;4.008;2022-09-09T12:25:39;101132.88;;;25.61;46.79
13974;BME280;7060;43.770;4.008;2022-09-09T12:28:15;101132.16;;;25.66;46.13
13974;BME280;7060;43.770;4.008;2022-09-09T12:30:51;101125.25;;;25.63;46.29
13974;BME280;7060;43.770;4.008;2022-09-09T12:33:23;101135.00;;;25.59;46.82
13974;BME280;7060;43.770;4.008;2022-09-09T12:35:55;101133.56;;;25.57;46.68
13974;BME280;7060;43.770;4.008;2022-09-09T12:38:32;101129.28;;;25.49;44.96
13974;BME280;7060;43.770;4.008;2022-09-09T12:41:04;101128.78;;;25.41;45.40
13974;BME280;7060;43.770;4.008;2022-09-09T12:43:33;101122.34;;;25.35;47.30
13974;BME280;7060;43.770;4.008;2022-09-09T12:46:06;101129.09;;;25.33;48.33
13974;BME280;7060;43.770;4.008;2022-09-09T12:48:40;101128.69;;;25.29;47.13
13974;BME280;7060;43.770;4.008;2022-09-09T12:51:18;101117.31;;;25.32;47.10
13974;BME280;7060;43.770;4.008;2022-09-09T12:53:47;101115.31;;;25.39;46.09
13974;BME280;7060;43.770;4.008;2022-09-09T12:56:21;101043.22;;;25.04;45.82
13974;BME280;7060;43.770;4.008;2022-09-09T12:58:51;101117.50;;;25.49;46.90
13974;BME280;7060;43.770;4.008;2022-09-09T13:01:24;101114.88;;;25.54;47.37
13974;BME280;7060;43.770;4.008;2022-09-09T13:03:55;101112.25;;;25.59;46.47
13974;BME280;7060;43.770;4.008;2022-09-09T13:06:25;101111.56;;;25.63;46.14
13974;BME280;7060;43.770;4.008;2022-09-09T13:08:56;101113.69;;;25.61;45.49
13974;BME280;7060;43.770;4.008;2022-09-09T13:11:28;101113.09;;;25.59;45.27
13974;BME280;7060;43.770;4.008;2022-09-09T13:13:58;101112.13;;;25.54;45.13
13974;BME280;7060;43.770;4.008;2022-09-09T13:16:29;101109.53;;;25.59;44.54
13974;BME280;7060;43.770;4.008;2022-09-09T13:19:08;101119.44;;;25.72;43.79
13974;BME280;7060;43.770;4.008;2022-09-09T13:21:38;101106.25;;;25.80;43.38
13974;BME280;7060;43.770;4.008;2022-09-09T13:24:23;101105.97;;;25.82;41.92
13974;BME280;7060;43.770;4.008;2022-09-09T13:26:55;101065.34;;;25.44;42.30
13974;BME280;7060;43.770;4.008;2022-09-09T13:29:24;101108.81;;;25.63;42.33
13974;BME280;7060;43.770;4.008;2022-09-09T13:31:53;101107.38;;;25.61;42.98
13974;BME280;7060;43.770;4.008;2022-09-09T13:34:29;101095.16;;;25.75;42.43
13974;BME280;7060;43.770;4.008;2022-09-09T13:36:59;101100.44;;;26.00;42.49
13974;BME280;7060;43.770;4.008;2022-09-09T13:39:29;101109.69;;;26.11;42.10
13974;BME280;7060;43.770;4.008;2022-09-09T13:41:57;101103.28;;;26.05;42.00